Herzlich willkommen!

Am freundlichen Bodensee-Flugplatz zwischen Schwarzwald, Rhein und Alpen.

Anflug auf den Flugplatz Konstanz

Aktuelles

18.10.2017
Winterpause
In der Zeit von 18. Dez. 2017 bis 31. Jan. 2018 ist der Verkehrslandeplatz von der Betriebspflicht befreit. In dieser Zeit gilt eine PPR Regelung. Wir wünschen Allen ein schönes Weihnachtsfest und ein gutes neues Jahr. Flugleitung EDTZ

Live am Platz

Die Bilder unserer Webcams werden alle 5 Minuten aktualisiert.

Sonnenaufgang:

07:01 UTC / 08:01 Lokal

Sonnenuntergang:

15:33 UTC / 16:33 Lokal

METAR (12.12.2017 01:50 UTC):

EDNY 120150Z AUTO 25005KT 220V290 9999 SCT024 BKN032 OVC050 05/03 Q0996
VFR

TAF (11.12.2017 23:00 UTC):

TAF EDNY 112300Z 1200/1224 19005KT 9999 SCT020 BKN035 BECMG 1200/1202 25008KT PROB30 TEMPO 1203/1206 27015G25KT PROB30 TEMPO 1212/1215 4000 -SHRASN BKN020TCU BECMG 1215/1217 VRB03KT

Alle Angaben unverbindlich und ohne Gewähr. Zeiten genähert.

Für den Verkehrslandeplatz Konstanz werden keine offiziellen Wetterinformationen herausgegeben. Daher werden zur Orientierung Daten des nahegelegenen Flughafens Friedrichshafen dargestellt.